This is the latest recevied weather packets stored in our database for station/object AC8JV. If no packets are shown the sender has not sent any weather packets the latest 1 day(s).
| Time | Temp. | Humidity | Pressure | Rain* | Wind** | Luminosity | Snow |
|---|---|---|---|---|---|---|---|
| 1778023203 | 10° C | 52% | 1009.9 hPa | 0 mm | 1.79 m/s, 254° | - | - |
| 1778022606 | 10° C | 48% | 1009.7 hPa | 0 mm | 0.89 m/s, 274° | - | - |
| 1778022042 | 10° C | 50% | 1009.8 hPa | 0 mm | 1.79 m/s, 259° | - | - |
| 1778021402 | 10° C | 50% | 1009.9 hPa | 0 mm | 1.34 m/s, 272° | - | - |
| 1778020806 | 10.56° C | 47% | 1010 hPa | 0 mm | 3.13 m/s, 273° | - | - |
| 1778020259 | 10° C | 50% | 1009.9 hPa | 0 mm | 0.89 m/s, 276° | - | - |
| 1778019602 | 10° C | 46% | 1009.8 hPa | 0 mm | 3.13 m/s, 286° | - | - |
| 1778019011 | 10° C | 47% | 1009.8 hPa | 0 mm | 3.13 m/s, 313° | - | - |
| 1778018457 | 10° C | 47% | 1009.7 hPa | 0 mm | 3.58 m/s, 280° | - | - |
| 1778017822 | 10.56° C | 49% | 1009.8 hPa | 0 mm | 2.68 m/s, 240° | - | - |
| 1778017228 | 10.56° C | 50% | 1009.8 hPa | 0 mm | 2.68 m/s, 279° | - | - |
| 1778016601 | 10.56° C | 48% | 1009.8 hPa | 0 mm | 4.02 m/s, 250° | - | - |
| 1778016046 | 10.56° C | 47% | 1009.8 hPa | 0 mm | 3.58 m/s, 284° | - | - |
| 1778015415 | 10.56° C | 47% | 1009.8 hPa | 0 mm | 2.24 m/s, 275° | - | - |
| 1778014844 | 11.11° C | 45% | 1009.9 hPa | 0 mm | 5.36 m/s, 288° | - | - |
| 1778014201 | 11.11° C | 47% | 1009.9 hPa | 0 mm | 2.68 m/s, 284° | - | - |
| 1778013604 | 11.11° C | 45% | 1009.9 hPa | 0 mm | 4.02 m/s, 281° | - | - |
| 1778013009 | 11.11° C | 46% | 1010.1 hPa | 0 mm | 2.68 m/s, 267° | - | - |
| 1778012410 | 11.11° C | 44% | 1010.2 hPa | 0 mm | 4.92 m/s, 263° | - | - |
| 1778011812 | 11.11° C | 46% | 1010.1 hPa | 0 mm | 3.13 m/s, 271° | - | - |
| 1778011201 | 11.11° C | 46% | 1010.1 hPa | 0 mm | 4.02 m/s, 290° | - | - |
| 1778010624 | 11.11° C | 47% | 1010.2 hPa | 0 mm | 3.58 m/s, 308° | - | - |
| 1778010011 | 11.11° C | 46% | 1010.2 hPa | 0 mm | 3.13 m/s, 259° | - | - |
| 1778009421 | 11.67° C | 47% | 1010.2 hPa | 0 mm | 3.13 m/s, 286° | - | - |
| 1778008827 | 11.11° C | 45% | 1010.3 hPa | 0 mm | 4.47 m/s, 292° | - | - |
* Rain latest hour (hover to see other rain measurements)
** Current wind speed in m/s (hover to see current wind gust speed)